createdAt,value
2022-09-06T00:01:14.706Z,21.16
2022-09-06T00:03:42.952Z,21.06
2022-09-06T00:06:15.671Z,21.01
2022-09-06T00:08:45.229Z,20.97
2022-09-06T00:11:14.657Z,20.92
2022-09-06T00:13:42.944Z,20.88
2022-09-06T00:16:17.922Z,20.84
2022-09-06T00:18:46.839Z,20.89
2022-09-06T00:21:18.427Z,20.99
2022-09-06T00:23:47.124Z,21.08
2022-09-06T00:26:15.713Z,21.09
2022-09-06T00:28:45.705Z,21.04
2022-09-06T00:31:22.520Z,20.97
2022-09-06T00:33:51.387Z,20.94
2022-09-06T00:36:20.919Z,20.94
2022-09-06T00:38:52.036Z,20.94
2022-09-06T00:41:20.611Z,20.93
2022-09-06T00:43:48.748Z,20.88
2022-09-06T00:46:24.135Z,20.81
2022-09-06T00:49:05.292Z,20.81
2022-09-06T00:51:34.888Z,20.74
2022-09-06T00:54:08.340Z,20.74
2022-09-06T00:56:40.838Z,20.73
2022-09-06T00:59:09.332Z,20.70
2022-09-06T01:01:37.816Z,20.65
2022-09-06T01:04:06.314Z,20.64
2022-09-06T01:06:57.387Z,20.62
2022-09-06T01:09:54.173Z,20.62
2022-09-06T01:12:50.015Z,20.64
2022-09-06T01:15:45.937Z,20.67
2022-09-06T01:18:51.577Z,20.74
2022-09-06T01:21:35.035Z,20.83
2022-09-06T01:24:42.786Z,20.89
2022-09-06T01:27:19.998Z,20.85
2022-09-06T01:30:00.644Z,20.74
2022-09-06T01:32:31.726Z,20.74
2022-09-06T01:35:21.646Z,20.63
2022-09-06T01:37:50.040Z,20.32
2022-09-06T01:40:18.495Z,20.19
2022-09-06T01:42:49.163Z,20.09
2022-09-06T01:45:25.223Z,20.07
2022-09-06T01:48:23.968Z,20.04
2022-09-06T01:51:05.215Z,20.04
2022-09-06T01:54:12.751Z,20.03
2022-09-06T01:56:47.134Z,20.09
2022-09-06T01:59:41.297Z,20.12
2022-09-06T02:02:15.040Z,20.00
2022-09-06T02:04:57.237Z,19.91
2022-09-06T02:07:31.268Z,19.86
2022-09-06T02:10:36.502Z,19.86
2022-09-06T02:13:08.547Z,19.85
2022-09-06T02:15:50.489Z,19.83
2022-09-06T02:18:34.086Z,19.85
2022-09-06T02:21:03.373Z,19.87
2022-09-06T02:23:38.384Z,19.83
2022-09-06T02:26:14.941Z,19.92
2022-09-06T02:28:43.215Z,19.99
2022-09-06T02:31:23.797Z,20.01
2022-09-06T02:33:53.064Z,19.97
2022-09-06T02:36:22.011Z,20.02
2022-09-06T02:38:50.610Z,20.06
2022-09-06T02:41:23.088Z,20.01
2022-09-06T02:43:51.279Z,19.96
2022-09-06T02:46:19.555Z,19.93
2022-09-06T02:48:47.854Z,19.96
2022-09-06T02:51:19.028Z,20.05
2022-09-06T02:53:47.484Z,20.11
2022-09-06T02:56:16.159Z,20.09
2022-09-06T02:58:44.320Z,19.92
2022-09-06T03:01:14.370Z,19.89
2022-09-06T03:03:42.650Z,19.88
2022-09-06T03:06:12.344Z,19.85
2022-09-06T03:08:40.546Z,19.78
2022-09-06T03:11:08.775Z,19.75
2022-09-06T03:13:42.316Z,19.76
2022-09-06T03:16:10.579Z,19.81
2022-09-06T03:18:38.785Z,19.83
2022-09-06T03:21:07.003Z,19.86
2022-09-06T03:23:35.316Z,19.90
2022-09-06T03:26:05.496Z,19.95
2022-09-06T03:28:34.137Z,19.93
2022-09-06T03:31:02.290Z,19.60
2022-09-06T03:33:31.040Z,19.40
2022-09-06T03:36:01.774Z,19.37
2022-09-06T03:38:30.507Z,19.34
2022-09-06T03:40:59.178Z,19.35
2022-09-06T03:43:29.602Z,19.38
2022-09-06T03:45:58.466Z,19.42
2022-09-06T03:48:29.613Z,19.50
2022-09-06T03:50:58.840Z,19.55
2022-09-06T03:53:28.874Z,19.53
2022-09-06T03:55:58.238Z,19.53
2022-09-06T03:58:30.849Z,19.54
2022-09-06T04:01:05.392Z,19.59
2022-09-06T04:03:34.749Z,19.64
2022-09-06T04:06:03.381Z,19.62
2022-09-06T04:08:32.297Z,19.59
2022-09-06T04:11:00.798Z,19.57
2022-09-06T04:13:29.720Z,19.58
2022-09-06T04:15:58.063Z,19.50
2022-09-06T04:18:26.790Z,19.39
2022-09-06T04:20:56.373Z,19.37
2022-09-06T04:23:26.844Z,19.26
2022-09-06T04:25:57.110Z,19.20
2022-09-06T04:28:26.816Z,19.20
2022-09-06T04:31:03.920Z,19.19
2022-09-06T04:33:34.547Z,19.18
2022-09-06T04:36:05.187Z,19.22
2022-09-06T04:38:40.521Z,19.28
2022-09-06T04:41:10.196Z,19.34
2022-09-06T04:43:38.525Z,19.40
2022-09-06T04:46:21.262Z,19.37
2022-09-06T04:48:49.953Z,19.35
2022-09-06T04:51:18.517Z,19.36
2022-09-06T04:53:47.273Z,19.39
2022-09-06T04:56:21.971Z,19.44
2022-09-06T04:58:52.575Z,19.49
2022-09-06T05:01:21.196Z,19.53
2022-09-06T05:03:49.413Z,19.50
2022-09-06T05:06:23.153Z,19.34
2022-09-06T05:08:54.749Z,19.26
2022-09-06T05:11:23.635Z,19.24
2022-09-06T05:13:51.842Z,19.26
2022-09-06T05:16:20.144Z,19.33
2022-09-06T05:18:48.317Z,19.38
2022-09-06T05:21:16.665Z,19.40
2022-09-06T05:23:47.624Z,19.44
2022-09-06T05:26:15.837Z,19.51
2022-09-06T05:28:44.036Z,19.54
2022-09-06T05:31:23.831Z,19.65
2022-09-06T05:33:54.153Z,19.75
2022-09-06T05:36:23.607Z,19.89
2022-09-06T05:38:53.050Z,20.01
2022-09-06T05:41:25.212Z,20.07
2022-09-06T05:43:53.508Z,20.13
2022-09-06T05:46:21.920Z,20.26
2022-09-06T05:49:01.241Z,20.41
2022-09-06T05:51:29.620Z,20.45
2022-09-06T05:54:00.731Z,20.57
2022-09-06T05:56:28.944Z,20.77
2022-09-06T05:58:57.098Z,20.95
2022-09-06T06:01:27.730Z,21.17
2022-09-06T06:04:01.081Z,21.34
2022-09-06T06:06:30.385Z,21.48
2022-09-06T06:08:58.991Z,21.63
2022-09-06T06:11:28.367Z,21.76
2022-09-06T06:13:56.547Z,21.95
2022-09-06T06:16:25.476Z,22.07
2022-09-06T06:18:53.737Z,22.23
2022-09-06T06:21:24.774Z,22.27
2022-09-06T06:23:55.493Z,22.41
2022-09-06T06:26:24.599Z,22.53
2022-09-06T06:28:53.594Z,22.76
2022-09-06T06:31:22.609Z,23.23
2022-09-06T06:33:51.528Z,24.16
2022-09-06T06:36:22.406Z,24.85
2022-09-06T06:38:52.579Z,25.20
2022-09-06T06:41:24.059Z,25.22
2022-09-06T06:43:57.653Z,25.35
2022-09-06T06:46:29.124Z,26.18
2022-09-06T06:48:57.752Z,26.47
2022-09-06T06:51:31.103Z,26.40
2022-09-06T06:53:59.987Z,26.27
2022-09-06T06:56:34.055Z,26.32
2022-09-06T06:59:05.651Z,26.18
2022-09-06T07:01:36.016Z,26.07
2022-09-06T07:04:08.765Z,26.03
2022-09-06T07:12:39.932Z,26.18
2022-09-06T07:15:08.646Z,26.34
2022-09-06T07:17:36.846Z,26.57
2022-09-06T07:20:13.176Z,26.81
2022-09-06T07:22:42.347Z,26.75
2022-09-06T07:25:16.583Z,27.21
2022-09-06T07:27:48.085Z,27.37
2022-09-06T07:30:18.156Z,27.58
2022-09-06T07:32:46.371Z,27.84
2022-09-06T07:35:14.688Z,27.98
2022-09-06T07:37:42.864Z,28.35
2022-09-06T07:40:11.452Z,28.79
2022-09-06T07:42:40.579Z,29.09
2022-09-06T07:45:12.018Z,29.99
2022-09-06T07:53:15.465Z,31.41
2022-09-06T07:55:47.738Z,32.01
2022-09-06T07:58:16.714Z,32.19
2022-09-06T08:00:44.979Z,32.48
2022-09-06T08:03:13.623Z,32.53
2022-09-06T08:11:19.035Z,31.48
2022-09-06T08:13:52.686Z,30.76
2022-09-06T08:16:22.176Z,30.53
2022-09-06T08:18:55.186Z,30.30
2022-09-06T08:21:23.985Z,30.24
2022-09-06T08:23:55.230Z,30.05
2022-09-06T08:26:24.943Z,29.84
2022-09-06T08:29:02.100Z,30.18
2022-09-06T08:31:32.644Z,30.10
2022-09-06T08:34:02.115Z,29.93
2022-09-06T08:36:30.912Z,30.02
2022-09-06T08:39:04.938Z,30.45
2022-09-06T08:41:57.643Z,30.64
2022-09-06T08:47:22.844Z,30.61
2022-09-06T08:50:11.759Z,30.73
2022-09-06T08:53:00.117Z,30.99
2022-09-06T08:56:08.647Z,30.86
2022-09-06T08:58:42.851Z,31.09
2022-09-06T09:01:19.278Z,31.23
2022-09-06T09:03:47.565Z,30.74
2022-09-06T09:06:18.767Z,31.01
2022-09-06T09:09:07.014Z,30.67
2022-09-06T09:11:36.536Z,30.47
2022-09-06T09:14:16.847Z,30.49
2022-09-06T09:16:45.530Z,30.28
2022-09-06T09:19:14.867Z,30.17
2022-09-06T09:21:43.095Z,29.94
2022-09-06T09:24:13.804Z,29.85
2022-09-06T09:26:56.847Z,30.19
2022-09-06T09:29:28.775Z,30.00
2022-09-06T09:32:00.697Z,30.11
2022-09-06T09:34:33.833Z,30.08
2022-09-06T09:40:02.295Z,30.17
2022-09-06T09:42:36.990Z,30.13
2022-09-06T09:45:24.053Z,30.07
2022-09-06T09:47:52.596Z,30.14
2022-09-06T09:50:31.126Z,30.25
2022-09-06T09:53:13.805Z,30.26
2022-09-06T09:55:44.105Z,29.91
2022-09-06T09:58:21.131Z,30.15
2022-09-06T10:01:01.038Z,30.31
2022-09-06T10:03:31.239Z,30.37
2022-09-06T10:06:03.777Z,30.27
2022-09-06T10:08:34.642Z,30.35
2022-09-06T10:11:04.579Z,30.40
2022-09-06T10:13:34.309Z,30.48
2022-09-06T10:16:03.809Z,30.42
2022-09-06T10:18:39.590Z,30.08
2022-09-06T10:21:16.453Z,30.16
2022-09-06T10:27:02.331Z,30.47
2022-09-06T10:30:03.081Z,30.58
2022-09-06T10:32:55.306Z,30.63
2022-09-06T10:35:35.208Z,30.59
2022-09-06T10:38:13.385Z,30.76
2022-09-06T10:41:00.343Z,30.91
2022-09-06T10:43:41.261Z,30.98
2022-09-06T10:46:24.414Z,30.98
2022-09-06T10:48:53.886Z,30.98
2022-09-06T10:51:35.487Z,30.87
2022-09-06T10:54:14.596Z,30.99
2022-09-06T10:56:42.795Z,31.02
2022-09-06T11:02:30.553Z,31.13
2022-09-06T11:11:18.560Z,30.12
2022-09-06T11:13:47.399Z,30.26
2022-09-06T11:16:27.536Z,30.57
2022-09-06T11:19:15.058Z,30.86
2022-09-06T11:22:05.177Z,31.19
2022-09-06T11:25:05.628Z,31.09
2022-09-06T11:27:40.281Z,31.47
2022-09-06T11:30:15.740Z,31.31
2022-09-06T11:32:50.363Z,31.11
2022-09-06T11:35:35.035Z,31.47
2022-09-06T11:38:15.908Z,31.56
2022-09-06T11:40:47.891Z,31.95
2022-09-06T11:43:51.799Z,32.26
2022-09-06T11:46:35.068Z,32.66
2022-09-06T11:49:29.414Z,32.96
2022-09-06T11:51:57.638Z,33.28
2022-09-06T11:54:43.164Z,33.27
2022-09-06T11:57:22.523Z,33.17
2022-09-06T12:00:02.902Z,33.16
2022-09-06T12:02:38.312Z,33.20
2022-09-06T12:05:11.981Z,33.36
2022-09-06T12:08:15.270Z,33.45
2022-09-06T12:11:04.827Z,33.42
2022-09-06T12:13:47.653Z,33.41
2022-09-06T12:16:20.839Z,33.34
2022-09-06T12:18:49.049Z,33.27
2022-09-06T12:21:36.566Z,33.36
2022-09-06T12:24:06.510Z,33.55
2022-09-06T12:26:55.650Z,33.54
2022-09-06T12:29:28.382Z,33.86
2022-09-06T12:31:58.713Z,34.18
2022-09-06T12:34:31.204Z,34.59
2022-09-06T12:37:05.167Z,34.74
2022-09-06T12:39:34.673Z,34.56
2022-09-06T12:42:12.626Z,34.64
2022-09-06T12:44:50.930Z,34.36
2022-09-06T12:47:30.348Z,34.40
2022-09-06T12:50:15.248Z,34.21
2022-09-06T12:52:55.035Z,34.41
2022-09-06T12:55:33.797Z,34.66
2022-09-06T12:58:05.791Z,35.03
2022-09-06T13:00:51.986Z,35.11
2022-09-06T13:03:29.125Z,35.05
2022-09-06T13:06:02.215Z,34.83
2022-09-06T13:08:55.579Z,34.79
2022-09-06T13:11:36.309Z,35.18
2022-09-06T13:14:23.582Z,35.52
2022-09-06T13:16:53.315Z,35.42
2022-09-06T13:19:32.918Z,35.54
2022-09-06T13:22:03.784Z,35.70
2022-09-06T13:24:34.790Z,35.67
2022-09-06T13:27:32.801Z,35.26
2022-09-06T13:30:04.364Z,35.07
2022-09-06T13:32:34.067Z,35.20
2022-09-06T13:35:02.793Z,35.50
2022-09-06T13:37:34.032Z,35.54
2022-09-06T13:40:05.757Z,35.45
2022-09-06T13:42:37.225Z,35.46
2022-09-06T13:45:30.205Z,35.65
2022-09-06T13:48:13.058Z,35.67
2022-09-06T13:50:46.641Z,36.20
2022-09-06T13:53:20.647Z,36.06
2022-09-06T13:55:48.842Z,35.81
2022-09-06T13:58:17.002Z,35.64
2022-09-06T14:00:46.918Z,36.03
2022-09-06T14:03:41.968Z,35.73
2022-09-06T14:06:11.381Z,35.31
2022-09-06T14:09:03.312Z,34.94
2022-09-06T14:11:27.793Z,34.59
2022-09-06T14:13:56.081Z,34.42
2022-09-06T14:16:24.443Z,34.01
2022-09-06T14:18:52.829Z,33.76
2022-09-06T14:21:21.228Z,33.25
2022-09-06T14:23:51.202Z,33.05
2022-09-06T14:26:21.045Z,32.97
2022-09-06T14:28:50.358Z,32.66
2022-09-06T14:31:21.762Z,32.27
2022-09-06T14:33:50.406Z,32.01
2022-09-06T14:36:21.816Z,31.90
2022-09-06T14:38:50.720Z,31.83
2022-09-06T14:41:20.616Z,31.63
2022-09-06T14:43:54.483Z,31.62
2022-09-06T14:46:24.596Z,31.65
2022-09-06T14:49:11.011Z,31.52
2022-09-06T14:51:41.716Z,31.48
2022-09-06T14:54:14.066Z,31.29
2022-09-06T14:56:44.262Z,31.13
2022-09-06T14:59:12.808Z,31.07
2022-09-06T15:01:41.764Z,31.02
2022-09-06T15:04:11.961Z,30.81
2022-09-06T15:06:46.664Z,30.65
2022-09-06T15:09:16.885Z,30.55
2022-09-06T15:11:48.562Z,30.51
2022-09-06T15:14:25.192Z,30.47
2022-09-06T15:16:58.003Z,30.60
2022-09-06T15:19:31.037Z,30.58
2022-09-06T15:21:59.270Z,30.69
2022-09-06T15:24:28.638Z,30.63
2022-09-06T15:26:57.603Z,30.65
2022-09-06T15:29:29.485Z,30.61
2022-09-06T15:31:57.760Z,30.56
2022-09-06T15:34:26.871Z,30.51
2022-09-06T15:36:56.600Z,30.53
2022-09-06T15:39:25.004Z,30.39
2022-09-06T15:41:53.395Z,30.35
2022-09-06T15:44:22.090Z,30.35
2022-09-06T15:46:58.385Z,30.42
2022-09-06T15:49:32.170Z,30.47
2022-09-06T15:52:02.491Z,30.45
2022-09-06T15:54:50.145Z,30.35
2022-09-06T15:57:18.552Z,30.26
2022-09-06T15:59:47.741Z,30.14
2022-09-06T16:02:16.155Z,30.18
2022-09-06T16:04:45.294Z,30.22
2022-09-06T16:07:13.543Z,30.15
2022-09-06T16:09:42.576Z,30.04
2022-09-06T16:12:10.872Z,29.95
2022-09-06T16:14:39.128Z,29.97
2022-09-06T16:17:07.530Z,30.00
2022-09-06T16:19:35.817Z,29.99
2022-09-06T16:22:04.905Z,29.97
2022-09-06T16:24:33.222Z,29.96
2022-09-06T16:27:01.851Z,29.97
2022-09-06T16:29:35.043Z,29.91
2022-09-06T16:32:06.948Z,29.89
2022-09-06T16:34:36.428Z,29.93
2022-09-06T16:37:08.109Z,29.93
2022-09-06T16:39:40.276Z,29.90
2022-09-06T16:42:08.759Z,29.84
2022-09-06T16:44:42.066Z,29.73
2022-09-06T16:47:14.704Z,29.61
2022-09-06T16:49:44.635Z,29.58
2022-09-06T16:52:13.393Z,29.50
2022-09-06T16:54:41.790Z,29.50
2022-09-06T16:57:12.053Z,29.47
2022-09-06T16:59:40.698Z,29.41
2022-09-06T17:02:09.129Z,29.22
2022-09-06T17:04:37.738Z,29.08
2022-09-06T17:07:05.951Z,28.87
2022-09-06T17:09:35.295Z,28.73
2022-09-06T17:12:03.798Z,28.61
2022-09-06T17:14:32.037Z,28.47
2022-09-06T17:17:06.954Z,28.29
2022-09-06T17:19:38.618Z,28.17
2022-09-06T17:22:07.729Z,28.06
2022-09-06T17:24:36.921Z,27.95
2022-09-06T17:27:05.709Z,27.85
2022-09-06T17:29:37.202Z,27.70
2022-09-06T17:32:10.010Z,27.60
2022-09-06T17:34:39.949Z,27.45
2022-09-06T17:37:08.669Z,27.29
2022-09-06T17:39:37.380Z,27.18
2022-09-06T17:42:06.118Z,27.08
2022-09-06T17:44:34.495Z,26.99
2022-09-06T17:47:13.274Z,26.86
2022-09-06T17:49:42.821Z,26.75
2022-09-06T17:52:11.624Z,26.67
2022-09-06T17:54:39.899Z,26.62
2022-09-06T17:57:08.089Z,26.57
2022-09-06T17:59:36.455Z,26.54
2022-09-06T18:02:05.842Z,26.46
2022-09-06T18:04:34.267Z,26.44
2022-09-06T18:07:02.677Z,26.34
2022-09-06T18:09:31.020Z,26.29
2022-09-06T18:11:59.464Z,26.22
2022-09-06T18:14:28.692Z,26.19
2022-09-06T18:16:57.337Z,26.10
2022-09-06T18:19:27.532Z,25.96
2022-09-06T18:21:57.243Z,25.85
2022-09-06T18:24:25.864Z,25.78
2022-09-06T18:26:54.185Z,25.67
2022-09-06T18:29:22.562Z,25.58
2022-09-06T18:31:53.602Z,25.57
2022-09-06T18:34:22.196Z,25.53
2022-09-06T18:36:50.608Z,25.52
2022-09-06T18:39:20.299Z,25.46
2022-09-06T18:42:00.838Z,25.36
2022-09-06T18:44:33.038Z,25.28
2022-09-06T18:47:05.010Z,25.19
2022-09-06T18:49:34.259Z,25.15
2022-09-06T18:52:08.868Z,25.07
2022-09-06T18:54:37.215Z,25.06
2022-09-06T18:57:05.469Z,25.08
2022-09-06T18:59:33.752Z,25.07
2022-09-06T19:02:02.053Z,24.98
2022-09-06T19:04:31.081Z,24.93
2022-09-06T19:07:02.665Z,24.86
2022-09-06T19:09:30.929Z,24.79
2022-09-06T19:11:59.711Z,24.75
2022-09-06T19:14:27.974Z,24.74
2022-09-06T19:16:56.202Z,24.71
2022-09-06T19:19:24.570Z,24.66
2022-09-06T19:21:52.829Z,24.62
2022-09-06T19:24:22.809Z,24.60
2022-09-06T19:26:52.839Z,24.58
2022-09-06T19:29:21.184Z,24.57
2022-09-06T19:31:49.654Z,24.55
2022-09-06T19:34:18.204Z,24.55
2022-09-06T19:36:46.589Z,24.56
2022-09-06T19:39:16.936Z,24.57
2022-09-06T19:41:47.346Z,24.60
2022-09-06T19:44:17.546Z,24.62
2022-09-06T19:46:47.181Z,24.69
2022-09-06T19:49:19.143Z,24.91
2022-09-06T19:51:48.949Z,25.06
2022-09-06T19:54:18.029Z,25.16
2022-09-06T19:56:47.480Z,25.27
2022-09-06T19:59:16.512Z,25.36
2022-09-06T20:01:46.514Z,25.32
2022-09-06T20:04:15.745Z,25.29
2022-09-06T20:06:44.534Z,25.28
2022-09-06T20:09:13.525Z,25.25
2022-09-06T20:11:46.422Z,25.26
2022-09-06T20:14:15.659Z,25.21
2022-09-06T20:16:44.045Z,25.19
2022-09-06T20:19:14.586Z,25.16
2022-09-06T20:21:43.259Z,25.19
2022-09-06T20:24:11.727Z,25.17
2022-09-06T20:26:40.711Z,25.17
2022-09-06T20:29:09.063Z,25.15
2022-09-06T20:31:38.182Z,25.17
2022-09-06T20:34:07.090Z,25.17
2022-09-06T20:36:37.118Z,25.16
2022-09-06T20:39:05.865Z,25.14
2022-09-06T20:41:34.131Z,25.13
2022-09-06T20:44:02.614Z,25.12
2022-09-06T20:46:33.049Z,25.13
2022-09-06T20:49:04.526Z,25.13
2022-09-06T20:51:34.607Z,25.14
2022-09-06T20:54:05.275Z,25.10
2022-09-06T20:56:36.917Z,25.01
2022-09-06T20:59:08.607Z,24.97
2022-09-06T21:01:42.193Z,24.91
2022-09-06T21:04:12.418Z,24.84
2022-09-06T21:06:41.326Z,24.81
2022-09-06T21:09:14.071Z,24.73
2022-09-06T21:11:43.298Z,24.69
2022-09-06T21:14:11.896Z,24.62
2022-09-06T21:16:41.300Z,24.55
2022-09-06T21:19:10.960Z,24.49
2022-09-06T21:21:39.806Z,24.47
2022-09-06T21:24:09.713Z,24.46
2022-09-06T21:26:38.505Z,24.45
2022-09-06T21:29:06.770Z,24.37
2022-09-06T21:31:37.139Z,24.31
2022-09-06T21:34:11.457Z,24.27
2022-09-06T21:36:43.585Z,24.23
2022-09-06T21:39:13.000Z,24.23
2022-09-06T21:41:43.289Z,24.22
2022-09-06T21:44:12.753Z,24.21
2022-09-06T21:46:41.812Z,24.26
2022-09-06T21:49:12.931Z,24.27
2022-09-06T21:51:41.830Z,24.29
2022-09-06T21:54:10.488Z,24.33
2022-09-06T21:56:39.600Z,24.30
2022-09-06T21:59:08.519Z,24.29
2022-09-06T22:01:38.900Z,24.26
2022-09-06T22:04:07.826Z,24.25
2022-09-06T22:06:36.614Z,24.21
2022-09-06T22:09:10.529Z,24.22
2022-09-06T22:11:40.575Z,24.20
2022-09-06T22:14:15.494Z,24.20
2022-09-06T22:16:44.130Z,24.17
2022-09-06T22:19:12.711Z,24.18
2022-09-06T22:21:41.319Z,24.18
2022-09-06T22:24:11.759Z,24.19
2022-09-06T22:26:41.099Z,24.18
2022-09-06T22:29:15.416Z,24.15
2022-09-06T22:31:44.426Z,24.15
2022-09-06T22:34:13.047Z,24.12
2022-09-06T22:36:41.560Z,24.16
2022-09-06T22:39:09.913Z,24.13
2022-09-06T22:41:38.525Z,24.12
2022-09-06T22:44:07.268Z,24.14
2022-09-06T22:46:37.260Z,24.15
2022-09-06T22:49:05.678Z,24.09
2022-09-06T22:51:34.033Z,24.05
2022-09-06T22:54:02.881Z,24.01
2022-09-06T22:56:31.781Z,23.95
2022-09-06T22:59:05.487Z,23.90
2022-09-06T23:01:39.293Z,23.86
2022-09-06T23:04:08.797Z,23.82
2022-09-06T23:06:38.041Z,23.80
2022-09-06T23:09:06.403Z,23.77
2022-09-06T23:11:34.605Z,23.76
2022-09-06T23:14:04.913Z,23.73
2022-09-06T23:16:33.385Z,23.67
2022-09-06T23:19:01.681Z,23.67
2022-09-06T23:21:29.887Z,23.62
2022-09-06T23:23:58.456Z,23.59
2022-09-06T23:26:30.884Z,23.56
2022-09-06T23:29:00.161Z,23.53
2022-09-06T23:31:33.550Z,23.49
2022-09-06T23:34:02.816Z,23.45
2022-09-06T23:36:31.869Z,23.40
2022-09-06T23:39:01.833Z,23.34
2022-09-06T23:41:30.404Z,23.30
2022-09-06T23:43:58.863Z,23.33
2022-09-06T23:46:27.476Z,23.27
2022-09-06T23:48:55.844Z,23.22
2022-09-06T23:51:24.362Z,23.20
2022-09-06T23:53:52.822Z,23.16
2022-09-06T23:56:21.594Z,23.12
2022-09-06T23:58:49.867Z,23.06
